Terminal Aerodrome Forecast
Issued by NWS

Home | Current Version | Previous Version | Text Only | Print | Product List | Glossary On
Versions: 1 2 3 4 5 6 7 8 9 10 11 12 13 14
000
FTUS43 KJKL 182324
TAFSJS
TAF
KSJS 182324Z 1900/1924 VRB03KT P6SM FEW060 SCT150 BKN250
     FM191100 15004KT 6SM -SHRA BR BKN045 OVC090
     FM191500 16005KT 5SM -SHRA BR BKN040 OVC090
     FM191900 19006KT 6SM -SHRA VCTS BKN030CB BKN120
     FM192200 20008G16KT P6SM VCTS SCT035CB BKN250=

USA.gov is the U.S. government's official web portal to all federal, state and local government web resources and services.